Time;durP1;ratioP1;P1;durP2;ratioP2;P2;SDS_P1;SDS_P2;PMS_P1;PMS_P2;Temp;Humidity;BMP_temperature;BMP_pressure;BME280_temperature;BME280_humidity;BME280_pressure;Samples;Min_cycle;Max_cycle;Signal;HPM_P1;HPM_P2
2023/05/20 00:00:30;;;;;;;10.75;5.13;;;;;;;13.82;nan;-13614.22;5012219;28;20169;-68
2023/05/20 00:02:56;;;;;;;7.72;4.80;;;;;;;13.71;nan;-14255.56;5012207;28;20164;-68
2023/05/20 00:05:22;;;;;;;8.02;4.93;;;;;;;13.42;nan;-14573.16;5012568;28;20634;-68
2023/05/20 00:07:48;;;;;;;7.43;4.85;;;;;;;13.62;nan;-15538.97;5012123;28;20164;-68
2023/05/20 00:10:13;;;;;;;11.45;5.70;;;;;;;13.30;nan;-15855.28;5011325;28;20180;-67
2023/05/20 00:12:39;;;;;;;8.23;5.55;;;;;;;13.69;nan;-15218.84;5012120;28;20200;-67
2023/05/20 00:15:05;;;;;;;7.43;4.93;;;;;;;13.61;nan;-14896.63;5012124;28;20168;-68
2023/05/20 00:17:31;;;;;;;8.57;5.13;;;;;;;13.60;nan;-14575.38;5012109;28;20179;-67
2023/05/20 00:19:56;;;;;;;9.32;5.50;;;;;;;13.32;nan;-14250.94;5012113;28;20219;-67
2023/05/20 00:22:21;;;;;;;11.57;5.07;;;;;;;13.25;nan;-14250.22;5011942;28;20246;-67
2023/05/20 00:24:47;;;;;;;8.10;4.85;;;;;;;13.51;nan;-14253.25;5011764;28;20190;-68
2023/05/20 00:27:12;;;;;;;12.70;5.32;;;;;;;13.46;nan;-14573.66;5012213;28;20170;-69
2023/05/20 00:29:37;;;;;;;8.82;4.90;;;;;;;13.35;nan;-13609.19;5011815;28;20334;-68
2023/05/20 00:32:03;;;;;;;9.90;5.38;;;;;;;13.16;nan;-14249.16;5012748;28;20204;-68
2023/05/20 00:34:29;;;;;;;9.02;5.07;;;;;;;13.26;nan;-13608.28;5012018;28;20263;-67
2023/05/20 00:36:54;;;;;;;8.07;4.82;;;;;;;13.24;nan;-13929.13;5011940;28;20168;-67
2023/05/20 00:39:20;;;;;;;9.57;5.63;;;;;;;13.53;nan;-14895.59;5011683;28;20546;-68
2023/05/20 00:41:45;;;;;;;13.02;5.32;;;;;;;13.42;nan;-15536.16;5012485;28;20237;-69
2023/05/20 00:44:11;;;;;;;11.30;5.40;;;;;;;13.21;nan;-16495.63;5011960;28;20209;-68
2023/05/20 00:46:37;;;;;;;9.75;5.90;;;;;;;13.07;nan;-17455.28;5011800;28;20635;-68
2023/05/20 00:49:02;;;;;;;10.13;5.25;;;;;;;13.28;nan;-17779.53;5011716;28;20230;-68
2023/05/20 00:51:28;;;;;;;7.90;4.90;;;;;;;13.19;nan;-18098.44;5011790;28;20168;-67
2023/05/20 00:53:54;;;;;;;8.68;5.35;;;;;;;12.97;nan;-18414.88;5011443;28;20219;-67
2023/05/20 00:56:21;;;;;;;8.77;4.93;;;;;;;12.93;nan;-18734.50;5011843;28;20643;-69
2023/05/20 00:58:46;;;;;;;10.35;6.07;;;;;;;13.16;nan;-19379.81;5011847;28;20180;-67
2023/05/20 01:01:12;;;;;;;15.00;6.45;;;;;;;13.04;nan;-19057.09;5011910;28;20647;-68
2023/05/20 01:03:37;;;;;;;13.00;5.45;;;;;;;12.82;nan;-19693.34;5011501;28;20164;-68
2023/05/20 01:06:03;;;;;;;10.27;5.10;;;;;;;13.17;nan;-19700.53;5011270;28;20202;-67
2023/05/20 01:08:29;;;;;;;9.20;5.63;;;;;;;13.20;nan;-19380.63;5011386;28;20179;-69
2023/05/20 01:11:04;;;;;;;10.05;5.38;;;;;;;13.18;nan;-19700.63;5011522;28;20180;-68
2023/05/20 01:13:44;;;;;;;9.68;6.22;;;;;;;13.03;nan;-20338.06;5011726;28;20313;-69
2023/05/20 01:16:10;;;;;;;8.52;6.03;;;;;;;12.69;nan;-20650.94;5011557;28;20608;-68
2023/05/20 01:18:38;;;;;;;8.48;5.30;;;;;;;12.99;nan;-20977.59;5011340;28;20547;-67
2023/05/20 01:21:06;;;;;;;11.98;6.15;;;;;;;12.68;nan;-20970.75;5013301;28;20228;-67
2023/05/20 01:23:39;;;;;;;9.20;5.45;;;;;;;12.62;nan;-21289.34;5015010;28;20172;-67
2023/05/20 01:26:05;;;;;;;11.05;6.03;;;;;;;12.87;nan;-21615.13;5015248;28;20188;-67
2023/05/20 01:28:32;;;;;;;11.35;6.22;;;;;;;12.78;nan;-21933.06;5015044;28;20172;-69
2023/05/20 01:31:00;;;;;;;8.75;5.70;;;;;;;12.36;nan;-22242.53;5014642;28;20182;-68
2023/05/20 01:33:27;;;;;;;9.43;6.05;;;;;;;12.57;nan;-22567.47;5014491;28;20195;-69
2023/05/20 01:35:54;;;;;;;11.25;5.88;;;;;;;12.57;nan;-22887.25;5015678;28;20177;-67
2023/05/20 01:38:21;;;;;;;10.43;5.57;;;;;;;12.44;nan;-23203.66;5014889;28;20175;-68
2023/05/20 01:40:48;;;;;;;9.98;5.63;;;;;;;12.37;nan;-23201.94;5014927;28;20160;-68
2023/05/20 01:43:14;;;;;;;8.57;5.13;;;;;;;12.26;nan;-23518.56;5014527;28;20231;-68
2023/05/20 01:45:41;;;;;;;11.43;5.70;;;;;;;12.20;nan;-23516.81;5014730;28;20247;-67
2023/05/20 01:48:09;;;;;;;9.63;5.65;;;;;;;12.34;nan;-23520.75;5014461;28;20252;-68
2023/05/20 01:50:35;;;;;;;8.38;5.43;;;;;;;12.08;nan;-23833.13;5014692;28;20180;-68
2023/05/20 01:53:00;;;;;;;9.80;5.50;;;;;;;12.42;nan;-23842.25;5014134;28;20584;-69
2023/05/20 01:55:26;;;;;;;11.73;6.35;;;;;;;12.08;nan;-23833.00;5014597;28;20176;-68
2023/05/20 01:57:51;;;;;;;12.48;6.15;;;;;;;12.35;nan;-24160.13;5014230;28;20242;-69
2023/05/20 02:00:16;;;;;;;11.32;6.03;;;;;;;12.32;nan;-24159.28;5029398;28;20271;-67
2023/05/20 02:02:42;;;;;;;10.05;5.38;;;;;;;12.26;nan;-24157.47;5014112;28;20190;-68
2023/05/20 02:05:08;;;;;;;9.52;5.40;;;;;;;12.26;nan;-24157.47;5014676;28;20164;-68
2023/05/20 02:07:33;;;;;;;11.35;5.65;;;;;;;12.15;nan;-24154.50;5014861;28;20169;-68
2023/05/20 02:09:59;;;;;;;8.48;5.32;;;;;;;11.94;nan;-24148.59;5013871;28;20187;-68
2023/05/20 02:12:24;;;;;;;8.55;5.32;;;;;;;12.03;nan;-24151.13;5014125;28;20188;-67
2023/05/20 02:14:50;;;;;;;8.38;5.18;;;;;;;12.05;nan;-24151.56;5014129;28;20183;-69
2023/05/20 02:17:16;;;;;;;10.05;5.45;;;;;;;11.91;nan;-24147.75;5013878;28;20544;-68
2023/05/20 02:19:43;;;;;;;8.60;5.60;;;;;;;12.06;nan;-24151.97;5014041;28;20311;-68
2023/05/20 02:22:08;;;;;;;8.32;5.22;;;;;;;11.82;nan;-24145.34;5014202;28;20180;-68
2023/05/20 02:24:34;;;;;;;8.60;5.47;;;;;;;12.12;nan;-24153.53;5013993;28;20172;-68
2023/05/20 02:27:00;;;;;;;8.48;5.53;;;;;;;11.99;nan;-24150.00;5014540;28;20531;-68
2023/05/20 02:29:25;;;;;;;9.98;5.40;;;;;;;11.81;nan;-24144.94;5013555;28;20241;-68
2023/05/20 02:31:51;;;;;;;8.70;5.15;;;;;;;12.04;nan;-23832.03;5012152;28;20196;-68
2023/05/20 02:34:17;;;;;;;11.13;5.47;;;;;;;12.16;nan;-23515.88;5013438;28;20248;-67
2023/05/20 02:36:42;;;;;;;12.27;5.00;;;;;;;12.10;nan;-23514.25;5013397;28;20235;-68
2023/05/20 02:39:08;;;;;;;9.00;5.28;;;;;;;11.92;nan;-23828.84;5013959;28;20183;-68
2023/05/20 02:41:33;;;;;;;10.13;5.68;;;;;;;11.95;nan;-23829.69;5013087;28;20172;-68
2023/05/20 02:43:59;;;;;;;8.55;5.50;;;;;;;11.93;nan;-24148.31;5013005;28;20215;-68
2023/05/20 02:46:24;;;;;;;12.00;5.38;;;;;;;11.50;nan;-24136.47;5012675;28;20200;-67
2023/05/20 02:48:50;;;;;;;10.38;5.55;;;;;;;11.63;nan;-24140.00;5012820;28;20186;-68
2023/05/20 02:51:15;;;;;;;11.30;6.07;;;;;;;11.39;nan;-24133.25;5012781;28;20176;-68
2023/05/20 02:53:40;;;;;;;12.65;6.00;;;;;;;11.73;nan;-24142.81;5013002;28;20266;-68
2023/05/20 02:56:07;;;;;;;9.20;5.60;;;;;;;11.53;nan;-23818.19;5013074;28;20172;-68
2023/05/20 02:58:34;;;;;;;10.40;5.35;;;;;;;11.40;nan;-24133.66;5012841;28;20553;-68
2023/05/20 03:01:00;;;;;;;9.50;5.00;;;;;;;11.80;nan;-23825.41;5013401;28;20206;-67
2023/05/20 03:03:26;;;;;;;11.82;5.95;;;;;;;11.70;nan;-23503.53;5017708;28;20643;-69
2023/05/20 03:05:52;;;;;;;9.48;5.82;;;;;;;12.04;nan;-23193.03;5012908;28;20233;-68
2023/05/20 03:08:20;;;;;;;8.95;5.22;;;;;;;12.03;nan;-23192.91;5012989;28;20176;-68
2023/05/20 03:10:45;;;;;;;8.45;5.35;;;;;;;11.83;nan;-23506.94;5012889;28;20184;-68
2023/05/20 03:13:10;;;;;;;9.05;5.18;;;;;;;11.97;nan;-23510.72;5012890;28;20576;-68
2023/05/20 03:15:44;;;;;;;10.32;5.43;;;;;;;11.73;nan;-23504.22;5012464;28;20624;-68
2023/05/20 03:18:11;;;;;;;11.30;6.05;;;;;;;11.96;nan;-23510.44;5013353;28;20164;-68
2023/05/20 03:20:37;;;;;;;11.70;5.80;;;;;;;11.92;nan;-23509.38;5011755;28;20582;-68
2023/05/20 03:23:03;;;;;;;8.70;4.85;;;;;;;11.82;nan;-23187.47;5012896;28;20263;-69
2023/05/20 03:25:29;;;;;;;9.35;5.40;;;;;;;11.88;nan;-22869.66;5012651;28;20837;-68
2023/05/20 03:27:55;;;;;;;10.80;5.25;;;;;;;11.95;nan;-22871.47;5011301;28;20593;-68
2023/05/20 03:30:21;;;;;;;9.77;5.60;;;;;;;12.22;nan;-22878.38;5012715;28;20187;-67
2023/05/20 03:32:46;;;;;;;9.52;5.65;;;;;;;12.38;nan;-22562.88;5012967;28;20690;-68
2023/05/20 03:35:12;;;;;;;9.18;4.88;;;;;;;12.24;nan;-20640.97;5012509;28;20172;-68
2023/05/20 03:37:37;;;;;;;9.55;5.53;;;;;;;11.81;nan;-21909.56;5012790;28;20259;-69
2023/05/20 03:40:05;;;;;;;9.43;5.25;;;;;;;12.18;nan;-21918.38;5013147;28;20179;-68
2023/05/20 03:42:31;;;;;;;9.77;5.38;;;;;;;13.04;nan;-19377.47;5012850;28;20172;-68
2023/05/20 03:44:58;;;;;;;7.80;4.93;;;;;;;13.64;nan;-11362.94;5011338;28;20187;-68
2023/05/20 03:47:24;;;;;;;8.52;5.07;;;;;;;13.25;nan;-13608.16;5011985;28;20642;-69
2023/05/20 03:49:49;;;;;;;8.85;4.78;;;;;;;12.79;nan;-18091.25;5014387;28;20191;-67
2023/05/20 03:52:15;;;;;;;7.60;4.93;;;;;;;12.64;nan;-21289.78;5012014;28;20195;-68
2023/05/20 03:54:40;;;;;;;10.18;5.50;;;;;;;13.07;nan;-21299.75;5012523;28;20659;-71
2023/05/20 03:57:06;;;;;;;11.38;5.30;;;;;;;14.33;nan;-9436.25;5012008;28;20172;-67
2023/05/20 03:59:31;;;;;;;9.30;5.38;;;;;;;16.12;nan;24968.38;5012484;28;20210;-68
2023/05/20 04:01:56;;;;;;;8.55;5.07;;;;;;;17.69;nan;57092.06;5012358;28;20180;-69
2023/05/20 04:04:22;;;;;;;10.80;5.53;;;;;;;18.95;nan;60021.03;5012467;28;20696;-68
2023/05/20 04:06:47;;;;;;;10.15;5.25;;;;;;;20.11;nan;60915.50;5012037;28;20180;-68
2023/05/20 04:09:13;;;;;;;10.43;5.15;;;;;;;20.95;nan;61514.53;5012412;28;20255;-70
2023/05/20 04:11:38;;;;;;;10.02;4.95;;;;;;;21.90;nan;61793.19;5011636;28;20180;-68
2023/05/20 04:14:04;;;;;;;7.80;4.70;;;;;;;22.43;nan;61894.44;5012107;28;20168;-68
2023/05/20 04:16:29;;;;;;;6.18;4.22;;;;;;;22.67;nan;61975.28;5017156;28;20188;-69
2023/05/20 04:18:57;;;;;;;8.75;4.43;;;;;;;22.95;nan;62011.81;5027642;28;20183;-68
2023/05/20 04:21:23;;;;;;;8.40;4.50;;;;;;;23.02;nan;62046.44;5000453;28;20192;-68
2023/05/20 04:23:48;;;;;;;8.10;4.75;;;;;;;23.54;nan;62201.03;5003070;28;20711;-67
2023/05/20 04:26:14;;;;;;;8.48;4.30;;;;;;;23.59;nan;62108.16;5013073;28;20266;-68
2023/05/20 04:28:40;;;;;;;7.93;4.45;;;;;;;23.42;nan;62109.66;5011904;28;20180;-68
2023/05/20 04:31:06;;;;;;;6.65;4.93;;;;;;;23.78;nan;62195.06;5012331;28;20187;-68
2023/05/20 04:33:32;;;;;;;8.18;4.78;;;;;;;23.37;nan;62101.34;5011828;28;20590;-68
2023/05/20 04:35:58;;;;;;;9.48;4.22;;;;;;;22.20;nan;61932.84;5012140;28;20214;-69
2023/05/20 04:38:31;;;;;;;6.78;4.60;;;;;;;21.18;nan;61836.25;5012107;28;20263;-68
2023/05/20 04:40:57;;;;;;;7.82;4.60;;;;;;;20.60;nan;61748.69;5011719;28;20640;-68
2023/05/20 04:43:28;;;;;;;7.53;4.43;;;;;;;19.47;nan;61587.41;5013105;28;20188;-67
2023/05/20 04:45:54;;;;;;;8.73;4.85;;;;;;;18.72;nan;61451.81;5011961;28;20653;-68
2023/05/20 04:48:21;;;;;;;7.93;4.55;;;;;;;18.59;nan;61320.69;5011767;28;20226;-68
2023/05/20 04:50:48;;;;;;;9.55;4.75;;;;;;;18.34;nan;61228.91;5010435;28;20180;-67
2023/05/20 04:53:14;;;;;;;9.52;5.20;;;;;;;18.65;nan;61288.63;5010320;28;20199;-69
2023/05/20 04:55:40;;;;;;;6.95;4.13;;;;;;;19.01;nan;61357.16;5015064;28;20237;-67
2023/05/20 04:58:07;;;;;;;7.75;4.78;;;;;;;19.42;nan;61461.03;5015679;28;20211;-68
2023/05/20 05:00:33;;;;;;;7.38;4.35;;;;;;;20.13;nan;61591.56;5015419;28;20210;-68
2023/05/20 05:03:00;;;;;;;8.18;4.75;;;;;;;20.82;nan;61664.00;5015530;28;20225;-68
2023/05/20 05:05:25;;;;;;;9.63;4.95;;;;;;;21.51;nan;61765.09;5015450;28;20184;-68
2023/05/20 05:07:50;;;;;;;7.30;4.45;;;;;;;22.00;nan;61903.44;5015408;28;20179;-68
2023/05/20 05:10:16;;;;;;;7.55;5.18;;;;;;;22.38;nan;62018.41;5015278;28;20183;-68
2023/05/20 05:12:41;;;;;;;7.20;4.47;;;;;;;22.50;nan;62013.84;5015128;28;20295;-69
2023/05/20 05:15:07;;;;;;;8.30;4.10;;;;;;;21.97;nan;61952.06;5020245;28;20187;-69
2023/05/20 05:17:32;;;;;;;6.55;4.07;;;;;;;22.29;nan;62019.13;5015063;28;20221;-69
2023/05/20 05:19:58;;;;;;;7.72;4.80;;;;;;;22.15;nan;61974.56;5015018;28;20224;-67
2023/05/20 05:22:23;;;;;;;11.25;4.53;;;;;;;22.03;nan;62013.53;5019997;28;20192;-70
2023/05/20 05:24:49;;;;;;;9.45;4.45;;;;;;;21.86;nan;61954.56;5017285;28;20183;-69
2023/05/20 05:27:14;;;;;;;8.45;4.60;;;;;;;21.31;nan;61861.41;5015094;28;20176;-69
2023/05/20 05:29:40;;;;;;;6.97;4.57;;;;;;;20.44;nan;61834.34;5014937;28;20188;-69
2023/05/20 05:32:05;;;;;;;9.70;4.78;;;;;;;20.74;nan;61839.31;5014720;28;20638;-69
2023/05/20 05:34:31;;;;;;;7.18;4.72;;;;;;;20.42;nan;61751.06;5014840;28;20275;-71
2023/05/20 05:36:56;;;;;;;8.75;4.90;;;;;;;20.22;nan;61926.66;5014804;28;20207;-68
2023/05/20 05:39:21;;;;;;;10.27;4.75;;;;;;;19.82;nan;61660.75;5014534;28;20195;-68
2023/05/20 05:41:47;;;;;;;8.82;4.57;;;;;;;20.11;nan;61722.19;5014704;28;20176;-69
2023/05/20 05:44:12;;;;;;;7.55;4.75;;;;;;;19.78;nan;61680.13;5014722;28;20195;-70
2023/05/20 05:46:38;;;;;;;10.15;4.72;;;;;;;19.94;nan;61710.66;5016377;28;20165;-68
2023/05/20 05:49:03;;;;;;;9.02;4.30;;;;;;;19.74;nan;61685.97;5014675;28;20589;-68
2023/05/20 05:51:29;;;;;;;8.10;4.90;;;;;;;19.49;nan;61786.59;5014544;28;20183;-69
2023/05/20 05:53:55;;;;;;;7.60;4.40;;;;;;;19.85;nan;61656.38;5014254;28;20598;-71
2023/05/20 05:56:20;;;;;;;7.93;4.63;;;;;;;19.90;nan;61633.53;5014470;28;20251;-71
2023/05/20 05:58:47;;;;;;;7.32;4.40;;;;;;;19.99;nan;61693.00;5018536;28;20176;-71
2023/05/20 06:01:12;;;;;;;9.40;4.78;;;;;;;19.71;nan;61643.09;5014342;28;20566;-72
2023/05/20 06:03:38;;;;;;;6.63;4.20;;;;;;;19.57;nan;61609.66;5014240;28;20234;-70
2023/05/20 06:06:03;;;;;;;8.55;4.60;;;;;;;19.91;nan;61647.63;5013788;28;20172;-70
2023/05/20 06:08:29;;;;;;;8.63;4.85;;;;;;;19.90;nan;61617.41;5012880;28;20164;-70
2023/05/20 06:10:54;;;;;;;8.25;4.53;;;;;;;19.87;nan;61647.72;5028959;28;20265;-68
2023/05/20 06:13:20;;;;;;;8.68;4.78;;;;;;;20.17;nan;61697.84;5013372;28;20231;-68
2023/05/20 06:15:47;;;;;;;7.20;4.32;;;;;;;20.38;nan;61725.75;5013802;28;20183;-69
2023/05/20 06:18:13;;;;;;;8.10;4.65;;;;;;;20.33;nan;61712.31;5014169;28;20203;-68
2023/05/20 06:20:38;;;;;;;10.23;4.72;;;;;;;20.49;nan;61769.38;5013375;28;20256;-70
2023/05/20 06:23:03;;;;;;;8.57;4.65;;;;;;;20.16;nan;61714.31;5013169;28;20188;-69
2023/05/20 06:25:29;;;;;;;9.65;4.72;;;;;;;20.54;nan;61775.06;5013970;28;20594;-69
2023/05/20 06:27:54;;;;;;;8.07;4.47;;;;;;;20.86;nan;61795.25;5013523;28;20176;-71
2023/05/20 06:30:19;;;;;;;8.23;5.03;;;;;;;20.63;nan;61788.44;5012021;28;20693;-70
2023/05/20 06:32:45;;;;;;;7.53;4.43;;;;;;;21.15;nan;61865.16;5017654;28;20254;-69
2023/05/20 06:35:11;;;;;;;7.03;4.72;;;;;;;21.10;nan;61832.91;5013288;28;20187;-69
2023/05/20 06:37:36;;;;;;;8.27;4.88;;;;;;;20.92;nan;61823.41;5013129;28;20259;-68
2023/05/20 06:40:03;;;;;;;7.22;4.38;;;;;;;20.88;nan;62057.84;5011706;28;20191;-70
2023/05/20 06:42:28;;;;;;;7.35;4.15;;;;;;;21.21;nan;61814.22;5012561;28;20184;-68
2023/05/20 06:44:54;;;;;;;7.28;4.35;;;;;;;20.94;nan;62084.91;5013006;28;20172;-70
2023/05/20 06:47:20;;;;;;;7.57;4.68;;;;;;;21.22;nan;61929.16;5015978;28;20202;-69
2023/05/20 06:49:45;;;;;;;7.32;3.97;;;;;;;21.56;nan;61916.38;5013087;28;20564;-70
2023/05/20 06:52:10;;;;;;;7.40;4.30;;;;;;;21.71;nan;62031.72;5012587;28;20202;-69
2023/05/20 06:54:40;;;;;;;9.77;4.63;;;;;;;21.78;nan;62200.41;5011790;28;20180;-70
2023/05/20 06:57:09;;;;;;;7.30;4.05;;;;;;;21.90;nan;61972.72;5015110;28;20317;-70
2023/05/20 06:59:35;;;;;;;7.30;4.03;;;;;;;22.16;nan;62022.56;5012981;28;20627;-69
2023/05/20 07:02:01;;;;;;;6.35;3.75;;;;;;;22.13;nan;61984.75;5013000;28;20176;-67
2023/05/20 07:04:27;;;;;;;6.78;4.47;;;;;;;22.11;nan;62003.84;5018183;28;20677;-70
2023/05/20 07:06:52;;;;;;;7.68;4.03;;;;;;;22.02;nan;62056.63;5019332;28;20250;-71
2023/05/20 07:09:18;;;;;;;8.40;4.55;;;;;;;21.92;nan;62050.44;5014725;28;20269;-69
2023/05/20 07:11:43;;;;;;;8.35;4.55;;;;;;;21.96;nan;62039.38;5016408;28;20191;-69
2023/05/20 07:14:09;;;;;;;8.68;4.70;;;;;;;22.40;nan;62018.66;5020467;28;20198;-70
2023/05/20 07:16:35;;;;;;;8.75;4.05;;;;;;;22.33;nan;62039.31;5014948;28;20180;-69
2023/05/20 07:19:01;;;;;;;6.35;4.22;;;;;;;22.35;nan;62177.00;5014014;28;20188;-70
2023/05/20 07:21:26;;;;;;;7.18;4.15;;;;;;;22.67;nan;62082.09;5017335;28;20948;-68
2023/05/20 07:23:52;;;;;;;6.90;4.47;;;;;;;22.49;nan;62103.84;5019107;28;20593;-69
2023/05/20 07:26:17;;;;;;;8.25;4.00;;;;;;;22.49;nan;62093.44;5020065;28;20190;-69
2023/05/20 07:28:44;;;;;;;6.53;4.07;;;;;;;23.05;nan;62163.94;5012494;28;20180;-68
2023/05/20 07:31:10;;;;;;;7.47;4.18;;;;;;;23.24;nan;62130.88;5012517;28;20180;-69
2023/05/20 07:33:35;;;;;;;6.57;4.07;;;;;;;23.06;nan;62134.38;5017199;28;20230;-69
2023/05/20 07:36:01;;;;;;;6.60;4.13;;;;;;;22.86;nan;62172.09;5020015;28;20182;-70
2023/05/20 07:38:26;;;;;;;5.63;3.80;;;;;;;23.20;nan;62319.25;5013743;28;20195;-69
2023/05/20 07:40:52;;;;;;;8.63;4.43;;;;;;;23.37;nan;62161.31;5020386;28;20176;-68
2023/05/20 07:43:18;;;;;;;5.93;3.80;;;;;;;22.78;nan;62128.53;5012239;28;20270;-68
2023/05/20 07:45:44;;;;;;;5.65;4.03;;;;;;;22.20;nan;62062.97;5015672;28;20184;-68
2023/05/20 07:48:09;;;;;;;10.30;4.75;;;;;;;22.01;nan;62042.47;5015185;28;20180;-68
2023/05/20 07:50:35;;;;;;;7.18;4.10;;;;;;;22.11;nan;61972.63;5017098;28;20259;-69
2023/05/20 07:53:00;;;;;;;6.88;4.05;;;;;;;22.80;nan;62122.97;5014029;28;20199;-70
2023/05/20 07:55:26;;;;;;;5.97;4.05;;;;;;;22.62;nan;62110.84;5011683;28;20261;-69
2023/05/20 07:57:51;;;;;;;7.15;4.38;;;;;;;22.52;nan;62081.22;5019906;28;20183;-69
2023/05/20 08:00:17;;;;;;;8.35;4.45;;;;;;;22.69;nan;62105.81;5014853;28;20194;-70
2023/05/20 08:02:43;;;;;;;6.45;4.22;;;;;;;22.97;nan;62118.34;5010894;28;20188;-68
2023/05/20 08:05:08;;;;;;;8.57;4.40;;;;;;;23.19;nan;62255.53;5013816;28;20612;-70
2023/05/20 08:07:34;;;;;;;6.25;4.20;;;;;;;23.66;nan;62206.91;5015250;28;20206;-70
2023/05/20 08:09:59;;;;;;;7.70;4.15;;;;;;;23.33;nan;62376.41;5012109;28;20559;-70
2023/05/20 08:12:25;;;;;;;6.75;3.83;;;;;;;23.81;nan;62289.25;5011692;28;20200;-69
2023/05/20 08:14:50;;;;;;;6.50;4.20;;;;;;;24.31;nan;62272.69;5017703;28;20645;-69
2023/05/20 08:17:16;;;;;;;7.35;4.63;;;;;;;24.16;nan;62331.84;5019801;28;20187;-69
2023/05/20 08:19:41;;;;;;;6.50;3.83;;;;;;;24.10;nan;62322.38;5013249;28;20234;-70
2023/05/20 08:22:07;;;;;;;5.43;3.78;;;;;;;24.60;nan;62363.25;5012710;28;20199;-71
2023/05/20 08:24:33;;;;;;;5.75;3.72;;;;;;;24.66;nan;62327.72;5011540;28;20191;-70
2023/05/20 08:26:58;;;;;;;7.93;4.40;;;;;;;24.41;nan;62534.91;5014194;28;20180;-70
2023/05/20 08:29:23;;;;;;;7.05;4.45;;;;;;;24.65;nan;62368.97;5012260;28;20211;-69
2023/05/20 08:31:49;;;;;;;7.07;4.20;;;;;;;24.79;nan;62357.69;5016742;28;20168;-69
2023/05/20 08:34:14;;;;;;;8.57;4.45;;;;;;;24.75;nan;62350.50;5018297;28;20224;-70
2023/05/20 08:36:41;;;;;;;10.45;5.10;;;;;;;24.19;nan;62301.31;5022750;28;20179;-70
2023/05/20 08:39:06;;;;;;;6.78;4.30;;;;;;;24.13;nan;62317.41;5023073;28;20187;-69
2023/05/20 08:41:32;;;;;;;9.65;4.68;;;;;;;24.60;nan;62352.81;5018515;28;20229;-69
2023/05/20 08:44:00;;;;;;;6.72;4.40;;;;;;;24.79;nan;62353.03;5022810;28;20179;-69
2023/05/20 08:46:26;;;;;;;8.90;4.38;;;;;;;25.33;nan;62460.72;5022574;28;20575;-69
2023/05/20 08:48:51;;;;;;;6.65;4.70;;;;;;;25.28;nan;62439.28;5022604;28;20689;-69
2023/05/20 08:51:20;;;;;;;6.55;4.30;;;;;;;24.85;nan;62391.25;5018924;28;20176;-69
2023/05/20 08:53:45;;;;;;;6.38;4.15;;;;;;;25.00;nan;62420.94;5022650;28;20265;-71
2023/05/20 08:56:12;;;;;;;7.53;4.25;;;;;;;24.97;nan;62378.28;5020855;28;20183;-70
2023/05/20 08:58:38;;;;;;;7.32;4.20;;;;;;;25.38;nan;62440.84;5025138;28;20333;-69
2023/05/20 09:01:05;;;;;;;12.02;4.15;;;;;;;25.41;nan;62498.63;5017879;28;20713;-69
2023/05/20 09:03:32;;;;;;;6.28;4.00;;;;;;;25.52;nan;62660.97;5018167;28;20194;-69
2023/05/20 09:06:05;;;;;;;6.53;3.85;;;;;;;25.51;nan;62466.16;5022527;28;20183;-69
2023/05/20 09:08:32;;;;;;;5.35;3.63;;;;;;;25.63;nan;62499.69;5022003;28;20180;-69
2023/05/20 09:10:57;;;;;;;5.80;4.10;;;;;;;25.95;nan;62534.28;5020783;28;20747;-70
2023/05/20 09:13:23;;;;;;;7.15;4.38;;;;;;;25.55;nan;62603.09;5017391;28;20333;-68
2023/05/20 09:15:49;;;;;;;8.10;4.43;;;;;;;25.72;nan;62510.00;5022440;28;20196;-69
2023/05/20 09:18:14;;;;;;;8.00;4.70;;;;;;;25.71;nan;62582.72;5019434;28;20184;-69
2023/05/20 09:20:40;;;;;;;7.22;4.07;;;;;;;25.78;nan;62543.63;5017174;28;20227;-69
2023/05/20 09:23:07;;;;;;;6.35;4.05;;;;;;;26.15;nan;62556.59;5017919;28;20622;-69
2023/05/20 09:25:34;;;;;;;6.50;3.63;;;;;;;25.85;nan;62541.16;5024322;28;20194;-70
2023/05/20 09:27:59;;;;;;;6.43;4.00;;;;;;;25.44;nan;62489.56;5019649;28;20175;-70
2023/05/20 09:30:25;;;;;;;6.25;4.00;;;;;;;25.21;nan;62564.69;5022673;28;20221;-69
2023/05/20 09:32:58;;;;;;;8.20;4.18;;;;;;;24.90;nan;62600.94;5017197;28;20204;-70
2023/05/20 09:35:25;;;;;;;6.68;4.13;;;;;;;24.86;nan;62365.69;5020751;28;20187;-69
2023/05/20 09:37:55;;;;;;;6.03;3.90;;;;;;;24.73;nan;62361.88;5022949;28;20187;-69
2023/05/20 09:40:26;;;;;;;7.00;4.10;;;;;;;24.58;nan;62577.31;5022442;28;20269;-68
2023/05/20 09:42:58;;;;;;;5.15;3.33;;;;;;;24.74;nan;62362.44;5017754;28;20184;-70
2023/05/20 09:45:24;;;;;;;6.07;3.40;;;;;;;24.91;nan;62450.44;5014274;28;20569;-70
2023/05/20 09:47:53;;;;;;;5.30;3.55;;;;;;;24.65;nan;62353.28;5014393;28;20196;-68
2023/05/20 09:50:20;;;;;;;5.90;3.85;;;;;;;23.76;nan;62267.88;5016359;28;20638;-61
2023/05/20 09:52:48;;;;;;;6.20;3.97;;;;;;;23.94;nan;62248.72;5014138;28;20216;-63
2023/05/20 09:55:14;;;;;;;7.82;4.25;;;;;;;24.37;nan;62305.06;5014263;28;20168;-63
2023/05/20 09:57:41;;;;;;;7.25;3.70;;;;;;;24.20;nan;62312.34;5014188;28;20211;-63
2023/05/20 10:00:12;;;;;;;6.20;4.18;;;;;;;24.57;nan;62328.47;5013320;28;20172;-62
2023/05/20 10:02:40;;;;;;;6.15;3.60;;;;;;;23.91;nan;62253.09;5018919;28;20238;-62
2023/05/20 10:05:18;;;;;;;6.45;3.78;;;;;;;23.91;nan;62269.34;5013945;28;20180;-64
2023/05/20 10:08:21;;;;;;;9.27;4.25;;;;;;;23.58;nan;62218.66;5013980;28;20184;-63
2023/05/20 10:11:04;;;;;;;6.00;4.10;;;;;;;23.38;nan;62212.03;5012217;28;20203;-62
2023/05/20 10:13:42;;;;;;;6.15;4.22;;;;;;;23.63;nan;62216.53;5013705;28;20195;-63
2023/05/20 10:16:46;;;;;;;5.28;3.75;;;;;;;23.61;nan;62235.09;5013412;28;20187;-60
2023/05/20 10:19:21;;;;;;;5.78;3.47;;;;;;;23.33;nan;62175.03;5011114;28;20180;-61
2023/05/20 10:22:04;;;;;;;5.00;3.58;;;;;;;23.12;nan;62154.25;5013318;28;20187;-62
2023/05/20 10:24:39;;;;;;;9.13;4.10;;;;;;;23.07;nan;62142.78;5013278;28;20265;-62
2023/05/20 10:27:08;;;;;;;7.68;4.00;;;;;;;23.20;nan;62173.81;5013545;28;20183;-63
2023/05/20 10:29:42;;;;;;;6.57;3.92;;;;;;;23.11;nan;62173.97;5013892;28;20195;-63
2023/05/20 10:32:07;;;;;;;5.85;4.03;;;;;;;22.94;nan;62133.16;5013490;28;20172;-61
2023/05/20 10:34:45;;;;;;;10.25;3.60;;;;;;;22.81;nan;62135.13;5013435;28;20203;-62
2023/05/20 10:37:21;;;;;;;6.03;3.78;;;;;;;22.95;nan;62163.53;5013473;28;20176;-62
2023/05/20 10:39:47;;;;;;;6.93;3.55;;;;;;;22.31;nan;62070.31;5013229;28;20230;-62
2023/05/20 10:42:12;;;;;;;10.20;4.47;;;;;;;22.68;nan;62137.94;5013642;28;20615;-61
2023/05/20 10:44:42;;;;;;;7.30;3.88;;;;;;;22.96;nan;62151.66;5013432;28;20160;-62
2023/05/20 10:47:08;;;;;;;6.57;4.13;;;;;;;22.88;nan;62106.06;5019858;28;20693;-60
2023/05/20 10:49:34;;;;;;;6.22;4.07;;;;;;;22.65;nan;62346.13;5015390;28;20179;-62
2023/05/20 10:52:01;;;;;;;4.38;3.15;;;;;;;22.51;nan;62089.94;5016028;28;20188;-62
2023/05/20 10:54:28;;;;;;;5.30;3.85;;;;;;;22.17;nan;62041.34;5016242;28;20184;-63
2023/05/20 10:56:54;;;;;;;4.43;2.95;;;;;;;21.86;nan;62046.22;5021482;28;20561;-60
2023/05/20 10:59:20;;;;;;;5.28;3.53;;;;;;;22.09;nan;62021.84;5017658;28;20176;-62
2023/05/20 11:01:47;;;;;;;5.93;3.65;;;;;;;22.34;nan;62032.63;5012616;28;20651;-62
2023/05/20 11:04:15;;;;;;;6.72;3.63;;;;;;;22.25;nan;62050.47;5014938;28;20264;-62
2023/05/20 11:06:49;;;;;;;7.00;4.07;;;;;;;22.26;nan;62096.44;5017571;28;20187;-63
2023/05/20 11:09:15;;;;;;;6.28;3.50;;;;;;;22.57;nan;62089.50;5015475;28;20184;-66
2023/05/20 11:11:40;;;;;;;5.45;3.53;;;;;;;22.49;nan;62093.44;5019348;28;20188;-64
2023/05/20 11:14:06;;;;;;;5.45;3.40;;;;;;;22.22;nan;62055.44;5017285;28;20212;-62
2023/05/20 11:16:31;;;;;;;5.45;3.38;;;;;;;22.39;nan;62095.03;5021511;28;20186;-65
2023/05/20 11:18:57;;;;;;;5.93;3.65;;;;;;;22.88;nan;62137.91;5019420;28;20196;-61
2023/05/20 11:21:22;;;;;;;6.03;3.90;;;;;;;22.96;nan;62177.16;5012473;28;20667;-60
2023/05/20 11:23:51;;;;;;;5.53;3.17;;;;;;;23.08;nan;62162.16;5020799;28;20234;-64
2023/05/20 11:26:16;;;;;;;5.68;3.33;;;;;;;23.33;nan;62203.72;5020721;28;20184;-61
2023/05/20 11:28:42;;;;;;;5.13;3.28;;;;;;;23.25;nan;62408.41;5014858;28;20242;-63
2023/05/20 11:31:08;;;;;;;6.15;3.40;;;;;;;23.46;nan;62442.91;5017816;28;20650;-65
2023/05/20 11:33:33;;;;;;;6.95;3.30;;;;;;;23.72;nan;62201.25;5021659;28;20286;-63
2023/05/20 11:36:01;;;;;;;5.90;3.15;;;;;;;23.53;nan;62228.59;5014541;28;20551;-62
2023/05/20 11:38:26;;;;;;;4.30;3.13;;;;;;;23.97;nan;62275.63;5010770;28;20180;-62
2023/05/20 11:40:53;;;;;;;6.25;3.28;;;;;;;24.20;nan;62513.44;5014648;28;20180;-65
2023/05/20 11:43:19;;;;;;;4.63;3.05;;;;;;;23.75;nan;62238.59;5017449;28;20627;-62